Time;durP1;ratioP1;P1;durP2;ratioP2;P2;SDS_P1;SDS_P2;PMS_P1;PMS_P2;Temp;Humidity;BMP_temperature;BMP_pressure;BME280_temperature;BME280_humidity;BME280_pressure;Samples;Min_cycle;Max_cycle;Signal;HPM_P1;HPM_P2
2021/05/21 00:01:04;;;;;;;1.60;1.50;;;11.50;99.90;;;;;;5089594;28;20195;-63
2021/05/21 00:03:31;;;;;;;2.50;1.33;;;11.50;99.90;;;;;;5088511;28;20566;-64
2021/05/21 00:05:57;;;;;;;1.97;1.47;;;11.40;99.90;;;;;;5070371;28;20279;-64
2021/05/21 00:08:24;;;;;;;2.93;1.70;;;11.40;99.90;;;;;;5089367;28;20200;-63
2021/05/21 00:10:50;;;;;;;1.40;1.30;;;11.30;99.90;;;;;;5088566;28;20491;-64
2021/05/21 00:13:18;;;;;;;1.50;1.40;;;11.30;99.90;;;;;;5089475;28;20200;-64
2021/05/21 00:15:44;;;;;;;1.97;1.40;;;11.30;99.90;;;;;;5088426;28;20285;-64
2021/05/21 00:18:11;;;;;;;1.50;1.33;;;11.30;99.90;;;;;;5088576;28;20220;-63
2021/05/21 00:20:37;;;;;;;1.40;1.20;;;11.30;99.90;;;;;;5080234;28;20212;-64
2021/05/21 00:23:04;;;;;;;1.70;1.30;;;11.30;99.90;;;;;;5085920;28;20191;-63
2021/05/21 00:25:30;;;;;;;1.77;1.37;;;11.30;99.90;;;;;;5085549;28;20318;-63
2021/05/21 00:27:57;;;;;;;1.27;1.20;;;11.30;99.90;;;;;;5087757;28;20275;-64
2021/05/21 00:30:24;;;;;;;1.30;1.20;;;11.40;99.90;;;;;;5088097;28;20288;-63
2021/05/21 00:32:50;;;;;;;1.30;1.20;;;11.40;99.90;;;;;;5088417;28;20284;-64
2021/05/21 00:35:17;;;;;;;1.33;1.20;;;11.40;99.90;;;;;;5070473;28;20196;-63
2021/05/21 00:37:44;;;;;;;1.53;1.43;;;11.40;99.90;;;;;;5088187;28;20200;-63
2021/05/21 00:40:11;;;;;;;1.30;1.20;;;11.40;99.90;;;;;;5088594;28;20266;-64
2021/05/21 00:42:37;;;;;;;1.30;1.20;;;11.40;99.90;;;;;;5088579;28;20299;-64
2021/05/21 00:45:05;;;;;;;1.53;1.43;;;11.30;99.90;;;;;;5088365;28;20287;-63
2021/05/21 00:47:32;;;;;;;2.07;1.90;;;11.30;99.90;;;;;;5087334;28;20595;-64
2021/05/21 00:49:59;;;;;;;2.97;1.70;;;11.30;99.90;;;;;;5087511;28;20669;-63
2021/05/21 00:52:27;;;;;;;1.53;1.43;;;11.30;99.90;;;;;;5088712;28;20274;-63
2021/05/21 00:54:54;;;;;;;1.30;1.20;;;11.30;99.90;;;;;;5089025;28;20314;-62
2021/05/21 00:57:21;;;;;;;1.60;1.50;;;11.20;99.90;;;;;;5088213;28;20203;-62
2021/05/21 00:59:49;;;;;;;1.50;1.40;;;11.30;99.90;;;;;;5079097;28;20566;-62
2021/05/21 01:02:16;;;;;;;1.70;1.60;;;11.30;99.90;;;;;;5088609;28;20735;-63
2021/05/21 01:04:43;;;;;;;1.77;1.43;;;11.30;99.90;;;;;;5088059;28;20247;-63
2021/05/21 01:07:10;;;;;;;1.40;1.30;;;11.30;99.90;;;;;;5086863;28;20193;-62
2021/05/21 01:09:36;;;;;;;1.17;1.10;;;11.30;99.90;;;;;;5075124;28;20204;-63
2021/05/21 01:12:04;;;;;;;1.30;1.20;;;11.30;99.90;;;;;;5087870;28;20224;-63
2021/05/21 01:14:30;;;;;;;1.40;1.30;;;11.40;99.90;;;;;;5088923;28;20296;-63
2021/05/21 01:16:57;;;;;;;1.87;1.27;;;11.30;99.90;;;;;;5081145;28;20232;-63
2021/05/21 01:19:23;;;;;;;2.07;1.87;;;11.40;99.90;;;;;;5081371;28;20218;-63
2021/05/21 01:21:50;;;;;;;2.20;1.50;;;11.30;99.90;;;;;;5087049;28;20721;-63
2021/05/21 01:24:18;;;;;;;1.70;1.60;;;11.30;99.90;;;;;;5088384;28;20245;-63
2021/05/21 01:26:47;;;;;;;1.60;1.30;;;11.30;99.90;;;;;;5079055;28;20198;-63
2021/05/21 01:29:14;;;;;;;1.83;1.50;;;11.30;99.90;;;;;;5088140;28;20678;-63
2021/05/21 01:31:43;;;;;;;1.30;1.20;;;11.30;99.90;;;;;;5088304;28;20691;-63
2021/05/21 01:34:09;;;;;;;2.20;1.33;;;11.30;99.90;;;;;;5086361;28;20200;-63
2021/05/21 01:36:36;;;;;;;2.00;1.77;;;11.30;99.90;;;;;;5087630;28;20198;-62
2021/05/21 01:39:09;;;;;;;1.40;1.30;;;11.30;99.90;;;;;;5088082;28;20196;-63
2021/05/21 01:41:36;;;;;;;2.50;1.70;;;11.30;99.90;;;;;;5087742;28;20232;-64
2021/05/21 01:44:05;;;;;;;1.53;1.43;;;11.30;99.90;;;;;;5087970;28;20686;-63
2021/05/21 01:46:32;;;;;;;1.40;1.30;;;11.30;99.90;;;;;;5085275;28;20219;-64
2021/05/21 01:48:59;;;;;;;1.73;1.20;;;11.30;99.90;;;;;;5086167;28;20540;-64
2021/05/21 01:51:25;;;;;;;1.70;1.43;;;11.30;99.90;;;;;;5087581;28;20244;-63
2021/05/21 01:53:52;;;;;;;1.20;1.10;;;11.30;99.90;;;;;;5088558;28;20203;-64
2021/05/21 01:56:19;;;;;;;1.20;1.10;;;11.30;99.90;;;;;;5091285;28;20193;-64
2021/05/21 01:58:45;;;;;;;1.67;1.20;;;11.30;99.90;;;;;;5091281;28;20663;-64
2021/05/21 02:01:12;;;;;;;1.07;1.00;;;11.30;99.90;;;;;;5091334;28;20192;-63
2021/05/21 02:03:38;;;;;;;1.30;1.20;;;11.30;99.90;;;;;;5090742;28;20283;-63
2021/05/21 02:06:05;;;;;;;1.50;1.07;;;11.30;99.90;;;;;;5091072;28;20200;-63
2021/05/21 02:08:32;;;;;;;1.90;1.13;;;11.30;99.90;;;;;;5091582;28;20216;-63
2021/05/21 02:10:58;;;;;;;1.33;1.23;;;11.30;99.90;;;;;;5091489;28;20224;-64
2021/05/21 02:13:25;;;;;;;1.17;1.10;;;11.30;99.90;;;;;;5091816;28;20199;-64
2021/05/21 02:15:52;;;;;;;1.03;1.03;;;11.30;99.90;;;;;;5091413;28;20299;-63
2021/05/21 02:18:18;;;;;;;1.37;1.17;;;11.20;99.90;;;;;;5091100;28;20559;-63
2021/05/21 02:20:45;;;;;;;1.00;1.00;;;11.20;99.90;;;;;;5082325;28;20196;-64
2021/05/21 02:23:12;;;;;;;1.00;0.90;;;11.20;99.90;;;;;;5091614;28;20193;-63
2021/05/21 02:25:39;;;;;;;0.80;0.80;;;11.10;99.90;;;;;;5087862;28;20192;-63
2021/05/21 02:28:06;;;;;;;1.00;1.00;;;11.10;99.90;;;;;;5090505;28;20294;-63
2021/05/21 02:30:33;;;;;;;0.87;0.87;;;11.10;99.90;;;;;;5090907;28;20293;-64
2021/05/21 02:33:00;;;;;;;1.20;1.10;;;11.10;99.90;;;;;;5091392;28;20316;-64
2021/05/21 02:35:26;;;;;;;0.97;0.97;;;11.10;99.90;;;;;;5078427;28;20200;-64
2021/05/21 02:37:53;;;;;;;1.37;1.27;;;11.10;99.90;;;;;;5090507;28;20211;-64
2021/05/21 02:40:19;;;;;;;1.20;1.10;;;11.10;99.90;;;;;;5090624;28;20316;-64
2021/05/21 02:42:45;;;;;;;1.40;1.30;;;11.00;99.90;;;;;;5090909;28;20574;-64
2021/05/21 02:45:13;;;;;;;1.20;1.20;;;11.00;99.90;;;;;;5090902;28;20222;-64
2021/05/21 02:47:40;;;;;;;1.10;1.10;;;10.90;99.90;;;;;;5090283;28;20668;-63
2021/05/21 02:50:08;;;;;;;1.03;1.03;;;10.90;99.90;;;;;;5070317;28;20196;-65
2021/05/21 02:52:35;;;;;;;1.30;1.30;;;10.90;99.90;;;;;;5083648;28;20229;-64
2021/05/21 02:55:02;;;;;;;1.40;1.30;;;10.80;99.90;;;;;;5084144;28;20225;-64
2021/05/21 02:57:28;;;;;;;1.37;1.27;;;10.80;99.90;;;;;;5078497;28;20208;-64
2021/05/21 02:59:55;;;;;;;1.00;1.00;;;10.80;99.90;;;;;;5090341;28;20271;-64
2021/05/21 03:02:22;;;;;;;2.10;1.27;;;10.80;99.90;;;;;;5090141;28;20203;-64
2021/05/21 03:04:49;;;;;;;1.10;1.10;;;10.80;99.90;;;;;;5089133;28;20195;-64
2021/05/21 03:07:16;;;;;;;1.30;1.20;;;10.80;99.90;;;;;;5084205;28;20213;-64
2021/05/21 03:09:42;;;;;;;1.47;1.37;;;10.80;99.90;;;;;;5090021;28;20216;-64
2021/05/21 03:12:10;;;;;;;1.10;1.10;;;10.80;99.90;;;;;;5090109;28;20718;-62
2021/05/21 03:14:37;;;;;;;2.20;1.10;;;10.80;99.90;;;;;;5090367;28;20207;-63
2021/05/21 03:17:03;;;;;;;1.30;1.30;;;10.90;99.90;;;;;;5081315;28;20201;-64
2021/05/21 03:19:30;;;;;;;1.30;1.20;;;10.80;99.90;;;;;;5081639;28;20196;-63
2021/05/21 03:21:57;;;;;;;1.67;1.57;;;10.80;99.90;;;;;;5089181;28;20278;-64
2021/05/21 03:24:24;;;;;;;1.63;1.53;;;10.80;99.90;;;;;;5089942;28;20204;-63
2021/05/21 03:26:51;;;;;;;1.23;1.23;;;10.80;99.90;;;;;;5075922;28;20350;-64
2021/05/21 03:29:18;;;;;;;1.50;1.40;;;10.80;99.90;;;;;;5089848;28;20256;-63
2021/05/21 03:31:46;;;;;;;1.60;1.50;;;10.90;99.90;;;;;;5090129;28;20226;-63
2021/05/21 03:34:13;;;;;;;1.40;1.30;;;10.90;99.90;;;;;;5088417;28;20227;-63
2021/05/21 03:36:40;;;;;;;1.97;1.83;;;10.90;99.90;;;;;;5089624;28;20204;-63
2021/05/21 03:39:08;;;;;;;1.70;1.60;;;10.80;99.90;;;;;;5089470;28;20201;-63
2021/05/21 03:41:34;;;;;;;1.50;1.40;;;10.80;99.90;;;;;;5071234;28;20261;-63
2021/05/21 03:44:01;;;;;;;1.70;1.60;;;10.80;99.90;;;;;;5089664;28;20298;-64
2021/05/21 03:46:27;;;;;;;2.30;1.50;;;10.90;99.90;;;;;;5086974;28;20197;-63
2021/05/21 03:48:54;;;;;;;1.40;1.13;;;10.90;99.90;;;;;;5087569;28;20274;-64
2021/05/21 03:51:21;;;;;;;2.63;1.30;;;10.90;99.90;;;;;;5089601;28;20667;-64
2021/05/21 03:53:48;;;;;;;1.30;1.20;;;11.00;99.90;;;;;;5083815;28;20212;-64
2021/05/21 03:56:15;;;;;;;1.13;1.13;;;11.10;99.90;;;;;;5089364;28;20275;-64
2021/05/21 03:58:42;;;;;;;1.10;1.10;;;11.10;99.90;;;;;;5088719;28;20198;-64
2021/05/21 04:01:08;;;;;;;1.10;1.10;;;11.10;99.90;;;;;;5086546;28;20261;-63
2021/05/21 04:03:35;;;;;;;1.40;1.30;;;11.20;99.90;;;;;;5084621;28;20291;-64
2021/05/21 04:06:02;;;;;;;1.80;1.70;;;11.30;99.90;;;;;;5088660;28;20200;-64
2021/05/21 04:08:29;;;;;;;1.47;1.37;;;11.30;99.90;;;;;;5089306;28;20210;-64
2021/05/21 04:10:56;;;;;;;1.60;1.50;;;11.30;99.90;;;;;;5088514;28;20498;-64
2021/05/21 04:13:24;;;;;;;1.40;1.30;;;11.30;99.90;;;;;;5089327;28;20223;-63
2021/05/21 04:15:50;;;;;;;1.20;1.20;;;11.40;99.90;;;;;;5088829;28;20211;-63
2021/05/21 04:18:17;;;;;;;0.90;0.90;;;11.50;99.90;;;;;;5070222;28;20219;-63
2021/05/21 04:20:43;;;;;;;1.57;1.47;;;11.50;99.90;;;;;;5067053;28;20254;-63
2021/05/21 04:23:10;;;;;;;1.37;1.30;;;11.60;99.90;;;;;;5088956;28;20511;-63
2021/05/21 04:25:37;;;;;;;1.60;1.50;;;11.60;99.90;;;;;;5084037;28;20207;-62
2021/05/21 04:28:03;;;;;;;2.77;1.40;;;11.70;99.90;;;;;;5079878;28;20305;-63
2021/05/21 04:30:31;;;;;;;1.10;1.10;;;11.80;99.90;;;;;;5088397;28;20659;-63
2021/05/21 04:32:57;;;;;;;1.30;1.20;;;11.90;99.90;;;;;;5089154;28;20224;-62
2021/05/21 04:35:24;;;;;;;1.17;1.00;;;12.00;99.90;;;;;;5075926;28;20209;-63
2021/05/21 04:37:50;;;;;;;1.17;1.07;;;12.10;99.90;;;;;;5088580;28;20282;-63
2021/05/21 04:40:17;;;;;;;1.00;1.00;;;12.10;99.90;;;;;;5088134;28;20202;-64
2021/05/21 04:42:44;;;;;;;1.57;1.37;;;12.20;99.90;;;;;;5081015;28;20258;-63
2021/05/21 04:45:12;;;;;;;1.10;1.10;;;12.20;99.90;;;;;;5089232;28;20612;-63
2021/05/21 04:47:39;;;;;;;1.20;1.10;;;12.30;99.90;;;;;;5088313;28;20294;-63
2021/05/21 04:50:07;;;;;;;1.13;1.13;;;12.30;99.90;;;;;;5087215;28;20206;-63
2021/05/21 04:52:33;;;;;;;0.90;0.90;;;12.50;99.90;;;;;;5088373;28;20307;-64
2021/05/21 04:55:00;;;;;;;1.60;1.50;;;12.60;99.90;;;;;;5076641;28;20315;-63
2021/05/21 04:57:27;;;;;;;1.40;1.30;;;12.70;99.90;;;;;;5088125;28;20195;-63
2021/05/21 04:59:53;;;;;;;1.40;1.30;;;12.80;99.90;;;;;;5057807;28;20207;-63
2021/05/21 05:02:20;;;;;;;1.40;1.30;;;12.90;99.90;;;;;;5088554;28;20205;-63
2021/05/21 05:04:47;;;;;;;2.33;1.40;;;13.10;99.90;;;;;;5087571;28;20628;-63
2021/05/21 05:07:14;;;;;;;1.50;1.40;;;13.10;99.90;;;;;;5083393;28;20249;-62
2021/05/21 05:09:40;;;;;;;1.50;1.40;;;13.20;99.90;;;;;;5075402;28;20200;-62
2021/05/21 05:12:08;;;;;;;1.67;1.57;;;13.40;99.90;;;;;;5087841;28;20303;-63
2021/05/21 05:14:34;;;;;;;1.43;1.33;;;13.50;99.90;;;;;;5088812;28;20293;-63
2021/05/21 05:17:01;;;;;;;1.20;1.10;;;13.70;99.90;;;;;;5088249;28;20272;-62
2021/05/21 05:19:27;;;;;;;3.43;1.47;;;13.90;99.90;;;;;;5085556;28;20207;-64
2021/05/21 05:21:58;;;;;;;2.00;1.50;;;14.00;99.90;;;;;;5087662;28;20280;-63
2021/05/21 05:24:25;;;;;;;1.67;1.20;;;14.20;99.90;;;;;;5069990;28;20200;-63
2021/05/21 05:26:52;;;;;;;1.80;1.63;;;14.40;99.90;;;;;;5074582;28;20193;-63
2021/05/21 05:29:18;;;;;;;2.30;1.30;;;14.60;99.90;;;;;;5089426;28;20284;-64
2021/05/21 05:31:46;;;;;;;1.57;1.47;;;14.70;99.90;;;;;;5091987;28;20283;-63
2021/05/21 05:34:13;;;;;;;3.23;1.30;;;14.90;99.90;;;;;;5074354;28;20572;-63
2021/05/21 05:36:40;;;;;;;1.93;1.30;;;15.00;99.90;;;;;;5091899;28;20198;-63
2021/05/21 05:39:07;;;;;;;1.70;1.60;;;15.20;99.90;;;;;;5091529;28;20203;-63
2021/05/21 05:41:34;;;;;;;1.40;1.30;;;15.40;99.90;;;;;;5091455;28;20241;-63
2021/05/21 05:44:00;;;;;;;1.40;1.30;;;15.50;99.90;;;;;;5092325;28;20217;-64
2021/05/21 05:46:26;;;;;;;1.50;1.40;;;15.60;99.90;;;;;;5089341;28;20604;-63
2021/05/21 05:48:53;;;;;;;1.73;1.50;;;15.70;99.90;;;;;;5090305;28;20286;-64
2021/05/21 05:51:19;;;;;;;1.40;1.30;;;15.80;99.90;;;;;;5091563;28;20577;-64
2021/05/21 05:53:46;;;;;;;1.10;1.00;;;15.90;99.90;;;;;;5091733;28;20229;-64
2021/05/21 05:56:13;;;;;;;1.53;1.43;;;16.00;99.90;;;;;;5091379;28;20195;-64
2021/05/21 05:58:40;;;;;;;1.50;1.40;;;16.10;99.90;;;;;;5090600;28;20204;-64
2021/05/21 06:01:08;;;;;;;1.60;1.50;;;16.20;99.90;;;;;;5091570;28;20198;-63
2021/05/21 06:03:34;;;;;;;1.57;1.47;;;16.10;99.90;;;;;;5091239;28;20761;-64
2021/05/21 06:06:01;;;;;;;2.53;1.30;;;16.10;99.90;;;;;;5090884;28;20199;-64
2021/05/21 06:08:27;;;;;;;1.30;1.20;;;16.10;99.90;;;;;;5081540;28;20223;-64
2021/05/21 06:10:54;;;;;;;1.33;1.30;;;16.20;99.90;;;;;;5090938;28;20559;-64
2021/05/21 06:13:25;;;;;;;1.30;1.07;;;16.20;99.90;;;;;;5091969;28;20220;-63
2021/05/21 06:15:52;;;;;;;1.00;1.00;;;16.30;99.90;;;;;;5091566;28;20321;-63
2021/05/21 06:18:22;;;;;;;1.00;1.00;;;16.40;99.90;;;;;;5089980;28;20217;-64
2021/05/21 06:20:51;;;;;;;1.67;1.27;;;16.40;99.90;;;;;;5081227;28;20193;-64
2021/05/21 06:23:18;;;;;;;1.13;1.10;;;16.40;99.60;;;;;;5072191;28;20668;-62
2021/05/21 06:28:34;;;;;;;1.40;1.20;;;16.50;99.10;;;;;;5010629;28;20222;-63
2021/05/21 06:31:01;;;;;;;1.10;1.03;;;16.60;98.80;;;;;;5004025;28;20732;-63
2021/05/21 06:33:27;;;;;;;0.90;0.90;;;16.60;98.60;;;;;;4996522;28;20719;-62
2021/05/21 06:35:54;;;;;;;2.20;1.13;;;16.70;98.40;;;;;;5013423;28;20215;-64
2021/05/21 06:38:20;;;;;;;1.13;0.90;;;16.80;97.80;;;;;;5019112;28;20220;-65
2021/05/21 06:40:47;;;;;;;1.10;1.10;;;16.80;97.50;;;;;;5013169;28;20285;-64
2021/05/21 06:43:13;;;;;;;1.27;1.17;;;16.90;97.00;;;;;;5006638;28;20737;-64
2021/05/21 06:45:42;;;;;;;1.67;1.10;;;16.90;96.70;;;;;;5006605;28;20248;-62
2021/05/21 06:48:09;;;;;;;0.80;0.80;;;17.00;96.20;;;;;;5002047;28;20670;-63
2021/05/21 06:50:35;;;;;;;0.90;0.90;;;17.40;95.70;;;;;;5011598;28;20202;-63
2021/05/21 06:53:02;;;;;;;2.50;1.10;;;18.00;94.30;;;;;;5015155;28;20311;-63
2021/05/21 06:55:29;;;;;;;2.10;1.00;;;18.40;93.00;;;;;;5017278;28;20682;-64
2021/05/21 06:57:55;;;;;;;2.00;0.80;;;18.60;91.70;;;;;;5023912;28;20213;-63
2021/05/21 07:00:22;;;;;;;1.03;0.80;;;18.50;91.00;;;;;;5025010;28;20205;-63
2021/05/21 07:02:49;;;;;;;1.80;0.97;;;18.50;90.50;;;;;;5024921;28;20285;-63
2021/05/21 07:05:16;;;;;;;1.20;1.10;;;18.40;90.00;;;;;;5057004;28;20207;-63
2021/05/21 07:07:42;;;;;;;1.20;0.90;;;18.40;88.80;;;;;;5087993;28;20194;-63
2021/05/21 07:10:10;;;;;;;0.80;0.80;;;18.40;88.60;;;;;;5076417;28;20212;-63
2021/05/21 07:12:36;;;;;;;1.17;1.00;;;18.50;87.80;;;;;;5086426;28;20695;-63
2021/05/21 07:15:04;;;;;;;1.37;1.00;;;18.70;87.10;;;;;;5087900;28;20226;-63
2021/05/21 07:17:30;;;;;;;0.80;0.80;;;18.90;85.50;;;;;;5087297;28;20201;-63
2021/05/21 07:19:57;;;;;;;2.80;0.97;;;19.20;84.20;;;;;;5077651;28;20284;-63
2021/05/21 07:22:24;;;;;;;1.07;0.97;;;19.40;82.50;;;;;;5086278;28;20272;-63
2021/05/21 07:24:51;;;;;;;0.77;0.77;;;19.50;81.20;;;;;;5082684;28;20206;-64
2021/05/21 07:27:19;;;;;;;0.68;0.68;;;19.60;79.90;;;;;;5070929;28;20191;-65
2021/05/21 07:29:46;;;;;;;2.60;0.90;;;19.80;79.60;;;;;;5072714;28;20554;-62
2021/05/21 07:32:12;;;;;;;1.42;1.00;;;19.90;78.10;;;;;;5066579;28;20219;-63
2021/05/21 07:34:39;;;;;;;2.58;0.93;;;20.10;77.50;;;;;;5078741;28;20315;-63
2021/05/21 07:37:07;;;;;;;5.88;1.50;;;20.40;75.50;;;;;;5080332;28;20339;-63
2021/05/21 07:39:33;;;;;;;51.92;8.27;;;20.60;74.20;;;;;;5078367;28;20214;-63
2021/05/21 07:42:00;;;;;;;9.43;2.63;;;20.80;72.80;;;;;;5074482;28;20227;-63
2021/05/21 07:44:26;;;;;;;2.35;1.50;;;21.10;71.70;;;;;;5078596;28;20197;-62
2021/05/21 07:46:53;;;;;;;43.00;5.65;;;21.20;70.10;;;;;;5073848;28;20205;-63
2021/05/21 07:49:24;;;;;;;6.00;1.80;;;21.30;69.40;;;;;;5072197;28;20196;-63
2021/05/21 07:51:51;;;;;;;8.23;2.15;;;21.50;68.10;;;;;;5075933;28;20204;-63
2021/05/21 07:54:19;;;;;;;3.03;1.55;;;21.60;67.50;;;;;;5079553;28;20230;-63
2021/05/21 07:56:46;;;;;;;1.80;1.30;;;21.80;66.80;;;;;;5081055;28;20235;-63
2021/05/21 07:59:13;;;;;;;1.10;0.95;;;21.90;65.70;;;;;;5066955;28;20612;-63
2021/05/21 08:01:40;;;;;;;1.70;1.30;;;22.10;65.10;;;;;;5082609;28;20192;-63
2021/05/21 08:04:07;;;;;;;1.00;1.00;;;22.10;64.70;;;;;;5068739;28;20439;-63
2021/05/21 08:06:34;;;;;;;1.00;1.00;;;21.90;64.80;;;;;;5061991;28;20282;-63
2021/05/21 08:09:03;;;;;;;1.23;1.10;;;21.70;64.70;;;;;;5074485;28;20219;-63
2021/05/21 08:11:31;;;;;;;1.17;1.08;;;21.50;64.70;;;;;;5077765;28;20636;-64
2021/05/21 08:13:58;;;;;;;1.20;1.10;;;21.30;64.40;;;;;;5073970;28;20277;-64
2021/05/21 08:16:26;;;;;;;2.25;0.80;;;21.10;64.20;;;;;;5074395;28;20204;-63
2021/05/21 08:18:52;;;;;;;0.90;0.90;;;20.90;64.80;;;;;;5083986;28;20293;-62
2021/05/21 08:21:19;;;;;;;3.17;1.00;;;20.80;65.00;;;;;;5086589;28;20241;-64
2021/05/21 08:23:45;;;;;;;1.00;1.00;;;20.80;65.00;;;;;;5080621;28;20193;-64
2021/05/21 08:26:12;;;;;;;0.90;0.90;;;20.80;64.90;;;;;;5082569;28;20275;-62
2021/05/21 08:28:41;;;;;;;1.08;1.00;;;20.90;64.50;;;;;;5082170;28;20202;-64
2021/05/21 08:31:07;;;;;;;4.13;1.70;;;20.90;64.80;;;;;;5086780;28;20212;-63
2021/05/21 08:33:38;;;;;;;1.42;1.33;;;20.80;63.80;;;;;;5080363;28;20299;-63
2021/05/21 08:36:07;;;;;;;1.00;1.00;;;20.80;63.90;;;;;;5080324;28;20271;-63
2021/05/21 08:38:33;;;;;;;1.55;1.15;;;20.80;64.10;;;;;;5082778;28;20220;-63
2021/05/21 08:41:01;;;;;;;1.90;1.40;;;20.80;64.20;;;;;;5079217;28;21942;-63
2021/05/21 08:43:31;;;;;;;1.83;1.40;;;20.70;63.50;;;;;;5077750;28;20640;-63
2021/05/21 08:45:59;;;;;;;2.08;1.33;;;20.60;63.70;;;;;;5085495;28;20642;-64
2021/05/21 08:48:25;;;;;;;1.00;1.00;;;20.40;64.10;;;;;;5085701;28;20185;-63
2021/05/21 08:50:52;;;;;;;1.33;1.25;;;20.30;64.70;;;;;;5084402;28;20287;-63
2021/05/21 08:53:20;;;;;;;1.40;1.30;;;20.20;64.80;;;;;;5080793;28;20231;-64
2021/05/21 08:55:46;;;;;;;3.20;1.38;;;20.20;65.10;;;;;;5082896;28;20193;-63
2021/05/21 08:58:13;;;;;;;1.67;1.58;;;20.20;65.40;;;;;;5084520;28;20195;-64
2021/05/21 09:00:41;;;;;;;3.47;1.38;;;20.30;65.70;;;;;;5077684;28;20599;-64
2021/05/21 09:03:18;;;;;;;1.92;1.40;;;20.20;65.90;;;;;;5086845;28;20200;-65
2021/05/21 09:06:13;;;;;;;1.50;1.40;;;20.20;66.20;;;;;;5087209;28;20258;-63
2021/05/21 09:08:44;;;;;;;3.50;1.90;;;20.10;66.40;;;;;;5090030;28;20648;-64
2021/05/21 09:11:25;;;;;;;1.70;1.60;;;20.00;66.40;;;;;;5087675;28;20310;-64
2021/05/21 09:13:56;;;;;;;2.03;1.25;;;20.00;66.50;;;;;;5080801;28;20229;-62
2021/05/21 09:16:24;;;;;;;2.92;1.40;;;20.00;66.50;;;;;;5089370;28;20301;-62
2021/05/21 09:19:06;;;;;;;1.60;1.42;;;20.10;66.40;;;;;;5087407;28;20296;-63
2021/05/21 09:21:59;;;;;;;35.22;5.32;;;20.30;66.40;;;;;;5087812;28;20211;-64
2021/05/21 09:24:32;;;;;;;13.32;3.35;;;20.50;66.10;;;;;;5088327;28;20196;-62
2021/05/21 09:27:00;;;;;;;3.25;1.52;;;21.00;65.80;;;;;;5089864;28;20245;-62
2021/05/21 09:29:39;;;;;;;4.60;1.63;;;21.50;64.60;;;;;;5090701;28;20253;-62
2021/05/21 09:32:21;;;;;;;5.18;1.77;;;22.10;63.40;;;;;;5089123;28;20242;-64
2021/05/21 09:35:03;;;;;;;1.27;1.15;;;22.70;62.30;;;;;;5088952;28;20204;-63
2021/05/21 09:37:30;;;;;;;1.00;1.00;;;23.20;61.40;;;;;;5089761;28;20517;-63
2021/05/21 09:40:15;;;;;;;3.00;1.27;;;23.40;60.30;;;;;;5089703;28;20708;-64
2021/05/21 09:42:50;;;;;;;0.95;0.95;;;23.20;60.20;;;;;;5088523;28;20286;-63
2021/05/21 09:45:29;;;;;;;1.40;1.30;;;22.80;60.60;;;;;;5078322;28;20521;-63
2021/05/21 09:48:00;;;;;;;1.05;1.05;;;22.60;60.80;;;;;;5089418;28;20200;-63
2021/05/21 09:50:37;;;;;;;1.20;1.10;;;22.40;60.90;;;;;;5088042;28;20196;-63
2021/05/21 09:53:06;;;;;;;1.20;1.20;;;22.30;60.80;;;;;;5084618;28;20254;-64
2021/05/21 09:55:35;;;;;;;1.05;1.05;;;22.20;60.60;;;;;;5076458;28;20648;-63
2021/05/21 09:58:02;;;;;;;1.30;1.20;;;22.10;60.80;;;;;;5077165;28;20279;-64
2021/05/21 10:00:28;;;;;;;1.40;1.30;;;22.10;60.80;;;;;;5077630;28;20318;-63
2021/05/21 10:02:56;;;;;;;1.00;1.00;;;22.00;60.80;;;;;;5083844;28;20209;-63
2021/05/21 10:05:22;;;;;;;1.20;1.20;;;21.90;61.30;;;;;;5080160;28;20215;-64
2021/05/21 10:07:52;;;;;;;1.98;1.40;;;22.00;61.30;;;;;;5074923;28;20193;-63
2021/05/21 10:10:21;;;;;;;1.40;1.30;;;22.60;61.40;;;;;;5076634;28;20274;-63
2021/05/21 10:12:51;;;;;;;2.60;1.33;;;23.50;60.40;;;;;;5082374;28;20228;-63
2021/05/21 10:15:18;;;;;;;3.03;1.40;;;24.10;58.40;;;;;;5082778;28;20718;-63
2021/05/21 10:17:45;;;;;;;1.33;1.02;;;24.30;56.40;;;;;;5075279;28;20232;-63
2021/05/21 10:20:17;;;;;;;2.70;1.15;;;24.00;55.60;;;;;;5072423;28;20285;-64
2021/05/21 10:22:46;;;;;;;2.17;0.90;;;24.00;54.50;;;;;;5078972;28;20220;-65
2021/05/21 10:25:22;;;;;;;3.00;1.17;;;23.90;54.40;;;;;;5078808;28;20228;-64
2021/05/21 10:27:52;;;;;;;0.90;0.90;;;23.80;53.60;;;;;;5082438;28;20312;-65
2021/05/21 10:30:22;;;;;;;1.48;1.10;;;23.50;53.70;;;;;;5076641;28;20691;-65
2021/05/21 10:32:49;;;;;;;2.00;0.90;;;23.20;53.30;;;;;;5076439;28;20764;-64
2021/05/21 10:35:18;;;;;;;1.27;1.00;;;22.90;53.50;;;;;;5077703;28;20201;-65
2021/05/21 10:38:18;;;;;;;1.13;1.00;;;22.70;53.80;;;;;;5083875;28;20707;-64
2021/05/21 10:41:15;;;;;;;0.90;0.90;;;22.60;54.00;;;;;;5076142;28;20236;-64
2021/05/21 10:43:50;;;;;;;1.52;1.00;;;22.50;54.20;;;;;;5059347;28;20198;-65
2021/05/21 10:46:28;;;;;;;1.23;1.15;;;22.80;55.00;;;;;;5077239;28;20290;-65
2021/05/21 10:48:56;;;;;;;1.23;1.13;;;24.50;53.10;;;;;;5078156;28;20267;-65
2021/05/21 10:51:24;;;;;;;1.00;1.00;;;26.30;51.40;;;;;;5078415;28;20517;-65
2021/05/21 10:54:24;;;;;;;0.95;0.95;;;28.40;48.60;;;;;;5083931;28;20221;-65
2021/05/21 10:56:53;;;;;;;2.38;1.45;;;29.40;45.90;;;;;;5080871;28;20288;-65
2021/05/21 10:59:20;;;;;;;1.38;0.90;;;29.50;44.50;;;;;;5083712;28;20189;-65
2021/05/21 11:01:47;;;;;;;1.10;1.10;;;28.70;44.10;;;;;;5081152;28;20504;-66
2021/05/21 11:04:18;;;;;;;1.05;1.05;;;28.50;44.10;;;;;;5077068;28;20184;-65
2021/05/21 11:06:47;;;;;;;1.00;0.90;;;29.20;43.70;;;;;;5085983;28;20200;-65
2021/05/21 11:09:15;;;;;;;0.90;0.90;;;30.20;42.80;;;;;;5065823;28;20201;-65
2021/05/21 11:11:46;;;;;;;0.68;0.68;;;31.20;41.40;;;;;;5083258;28;20563;-65
2021/05/21 11:14:34;;;;;;;0.82;0.82;;;31.80;39.80;;;;;;5078418;28;20220;-65
2021/05/21 11:17:11;;;;;;;0.77;0.77;;;32.20;38.50;;;;;;5073124;28;20287;-63
2021/05/21 11:19:45;;;;;;;0.93;0.93;;;32.70;38.10;;;;;;5076844;28;20196;-64
2021/05/21 11:22:32;;;;;;;0.90;0.90;;;32.80;37.10;;;;;;5082539;28;20273;-64
2021/05/21 11:25:02;;;;;;;0.80;0.80;;;32.40;37.10;;;;;;5074883;28;20562;-64
2021/05/21 11:27:29;;;;;;;2.13;0.90;;;32.40;37.50;;;;;;5077581;28;20204;-64
2021/05/21 11:29:56;;;;;;;1.88;0.80;;;32.50;37.20;;;;;;5073141;28;20228;-64
2021/05/21 11:32:25;;;;;;;0.90;0.90;;;32.20;37.40;;;;;;5082072;28;20688;-64
2021/05/21 11:34:52;;;;;;;1.02;1.02;;;31.70;37.90;;;;;;5080928;28;20197;-64
2021/05/21 11:37:24;;;;;;;1.40;1.02;;;31.20;38.40;;;;;;5077692;28;20208;-64
2021/05/21 11:39:52;;;;;;;0.90;0.90;;;30.60;38.80;;;;;;5070911;28;20201;-64
2021/05/21 11:42:23;;;;;;;0.90;0.90;;;30.30;39.10;;;;;;5083892;28;20235;-65
2021/05/21 11:44:53;;;;;;;1.10;1.10;;;29.80;39.20;;;;;;5079054;28;20821;-63
2021/05/21 11:47:29;;;;;;;1.08;1.08;;;29.20;39.00;;;;;;5078843;28;20199;-64
2021/05/21 11:49:57;;;;;;;0.98;0.98;;;28.50;40.00;;;;;;5077899;28;20232;-64
2021/05/21 11:52:24;;;;;;;1.10;1.00;;;27.90;40.40;;;;;;5072509;28;20899;-64
2021/05/21 11:54:51;;;;;;;1.33;1.23;;;27.40;40.90;;;;;;5078726;28;20279;-64
2021/05/21 11:57:20;;;;;;;2.75;1.60;;;26.90;41.50;;;;;;5081506;28;20208;-64
2021/05/21 11:59:46;;;;;;;3.80;1.63;;;26.80;42.30;;;;;;5081643;28;20211;-64
2021/05/21 12:02:14;;;;;;;2.42;1.55;;;27.00;42.60;;;;;;5083485;28;20208;-64
2021/05/21 12:04:43;;;;;;;1.48;1.20;;;26.90;42.40;;;;;;5077825;28;20200;-64
2021/05/21 12:07:20;;;;;;;1.77;1.52;;;26.50;42.60;;;;;;5079834;28;20659;-64
2021/05/21 12:09:54;;;;;;;1.98;1.40;;;26.00;43.40;;;;;;5078030;28;20199;-64
2021/05/21 12:12:22;;;;;;;1.45;1.30;;;25.60;44.00;;;;;;5082474;28;20655;-64
2021/05/21 12:14:48;;;;;;;1.60;1.50;;;25.40;44.80;;;;;;5080340;28;20197;-64
2021/05/21 12:17:15;;;;;;;1.48;1.38;;;25.30;45.30;;;;;;5081235;28;20555;-63
2021/05/21 12:19:43;;;;;;;1.20;1.10;;;25.20;45.40;;;;;;5074090;28;20243;-64
2021/05/21 12:22:09;;;;;;;1.30;1.30;;;25.10;45.70;;;;;;5080237;28;20204;-64
2021/05/21 12:24:40;;;;;;;2.28;2.17;;;25.00;46.00;;;;;;5078659;28;20199;-64
2021/05/21 12:27:07;;;;;;;1.65;1.55;;;24.80;47.00;;;;;;5075866;28;20188;-64
2021/05/21 12:29:34;;;;;;;1.92;1.83;;;24.70;46.60;;;;;;5078894;28;20686;-64
2021/05/21 12:32:02;;;;;;;2.28;1.52;;;24.50;46.30;;;;;;5073567;28;20276;-64
2021/05/21 12:34:29;;;;;;;1.60;1.50;;;24.40;46.30;;;;;;5076344;28;20251;-63
2021/05/21 12:36:58;;;;;;;1.15;1.05;;;24.20;46.40;;;;;;5069887;28;21112;-63
2021/05/21 12:39:31;;;;;;;2.25;1.35;;;24.00;46.60;;;;;;5059210;28;20197;-64
2021/05/21 12:41:58;;;;;;;1.30;1.20;;;23.90;46.80;;;;;;5080443;28;20236;-63
2021/05/21 12:44:25;;;;;;;1.70;1.60;;;23.80;47.00;;;;;;5079718;28;20272;-63
2021/05/21 12:46:54;;;;;;;1.30;1.30;;;23.70;47.00;;;;;;5077653;28;20675;-63
2021/05/21 12:49:25;;;;;;;1.40;1.30;;;23.40;47.10;;;;;;5070032;28;20221;-63
2021/05/21 12:51:53;;;;;;;2.35;1.30;;;23.20;47.60;;;;;;5075088;28;20293;-63
2021/05/21 12:54:26;;;;;;;1.60;1.50;;;23.00;48.30;;;;;;5087538;28;20221;-63